createdAt,value
2018-05-15T00:02:22.445Z,6.80
2018-05-15T00:04:50.378Z,6.37
2018-05-15T00:07:18.238Z,7.43
2018-05-15T00:09:46.104Z,8.43
2018-05-15T00:12:13.850Z,7.35
2018-05-15T00:14:41.622Z,6.50
2018-05-15T00:17:10.213Z,7.37
2018-05-15T00:19:37.987Z,7.53
2018-05-15T00:22:05.721Z,6.68
2018-05-15T00:24:33.502Z,6.45
2018-05-15T00:27:01.244Z,6.72
2018-05-15T00:29:29.118Z,7.30
2018-05-15T00:31:57.805Z,6.85
2018-05-15T00:34:26.383Z,7.22
2018-05-15T00:36:54.249Z,7.18
2018-05-15T00:39:22.110Z,6.57
2018-05-15T00:41:50.691Z,6.18
2018-05-15T00:44:18.591Z,7.03
2018-05-15T00:46:46.419Z,6.80
2018-05-15T00:49:14.182Z,6.55
2018-05-15T00:51:42.045Z,7.68
2018-05-15T00:54:10.627Z,6.75
2018-05-15T00:56:38.490Z,7.82
2018-05-15T00:59:07.180Z,7.90
2018-05-15T01:01:35.039Z,6.78
2018-05-15T01:04:02.903Z,7.10
2018-05-15T01:06:30.768Z,8.85
2018-05-15T01:08:59.449Z,8.00
2018-05-15T01:11:27.313Z,9.00
2018-05-15T01:13:55.179Z,6.55
2018-05-15T01:16:23.041Z,7.72
2018-05-15T01:18:50.910Z,7.90
2018-05-15T01:21:18.770Z,7.70
2018-05-15T01:23:46.639Z,7.70
2018-05-15T01:26:14.405Z,9.50
2018-05-15T01:28:43.084Z,8.85
2018-05-15T01:31:10.840Z,8.20
2018-05-15T01:33:38.587Z,8.38
2018-05-15T01:36:06.371Z,8.20
2018-05-15T01:38:34.127Z,9.27
2018-05-15T01:41:01.896Z,8.75
2018-05-15T01:43:29.652Z,8.00
2018-05-15T01:45:58.744Z,7.80
2018-05-15T01:48:26.618Z,8.45
2018-05-15T01:50:55.296Z,9.88
2018-05-15T01:53:23.794Z,7.00
2018-05-15T01:55:52.456Z,8.93
2018-05-15T01:58:21.038Z,9.75
2018-05-15T02:00:48.898Z,9.48
2018-05-15T02:03:17.485Z,8.77
2018-05-15T02:05:46.060Z,8.57
2018-05-15T02:08:13.831Z,8.27
2018-05-15T02:10:42.404Z,8.75
2018-05-15T02:13:11.088Z,8.68
2018-05-15T02:15:38.960Z,8.50
2018-05-15T02:18:07.634Z,10.68
2018-05-15T02:20:35.504Z,7.28
2018-05-15T02:23:03.361Z,7.47
2018-05-15T02:25:31.230Z,7.93
2018-05-15T02:27:59.910Z,9.68
2018-05-15T02:30:27.751Z,8.15
2018-05-15T02:32:55.721Z,10.15
2018-05-15T02:35:23.606Z,9.02
2018-05-15T02:37:51.475Z,11.57
2018-05-15T02:40:20.153Z,8.65
2018-05-15T02:42:48.017Z,10.13
2018-05-15T02:45:15.884Z,9.45
2018-05-15T02:47:44.462Z,9.32
2018-05-15T02:50:13.043Z,10.30
2018-05-15T02:52:40.875Z,11.20
2018-05-15T02:55:08.647Z,9.10
2018-05-15T02:57:36.384Z,9.32
2018-05-15T03:00:04.192Z,10.77
2018-05-15T03:02:32.774Z,8.60
2018-05-15T03:05:00.653Z,9.63
2018-05-15T03:07:28.506Z,9.30
2018-05-15T03:09:57.040Z,9.00
2018-05-15T03:12:24.951Z,9.82
2018-05-15T03:14:52.812Z,10.93
2018-05-15T03:17:21.496Z,9.10
2018-05-15T03:19:50.080Z,11.00
2018-05-15T03:22:17.944Z,9.85
2018-05-15T03:24:45.906Z,13.02
2018-05-15T03:27:14.590Z,10.65
2018-05-15T03:29:43.168Z,9.40
2018-05-15T03:32:11.034Z,8.77
2018-05-15T03:34:38.906Z,17.30
2018-05-15T03:37:07.479Z,7.57
2018-05-15T03:39:35.347Z,9.73
2018-05-15T03:42:03.213Z,9.95
2018-05-15T03:44:31.077Z,9.45
2018-05-15T03:46:58.913Z,9.52
2018-05-15T03:49:26.700Z,9.55
2018-05-15T03:51:55.282Z,8.07
2018-05-15T03:54:23.933Z,8.63
2018-05-15T03:56:51.732Z,9.10
2018-05-15T03:59:19.589Z,8.38
2018-05-15T04:01:59.432Z,9.77
2018-05-15T04:04:39.022Z,9.70
2018-05-15T04:07:18.391Z,11.07
2018-05-15T04:09:46.339Z,8.77
2018-05-15T04:12:14.085Z,10.77
2018-05-15T04:14:41.878Z,8.00
2018-05-15T04:17:09.653Z,13.30
2018-05-15T04:19:37.420Z,9.02
2018-05-15T04:22:05.284Z,8.63
2018-05-15T04:24:33.834Z,10.63
2018-05-15T04:27:01.698Z,11.38
2018-05-15T04:29:29.489Z,9.90
2018-05-15T04:31:58.174Z,10.68
2018-05-15T04:34:26.039Z,10.95
2018-05-15T04:36:53.908Z,11.90
2018-05-15T04:39:21.728Z,13.80
2018-05-15T04:41:49.501Z,11.63
2018-05-15T04:44:17.397Z,10.70
2018-05-15T04:46:45.976Z,10.93
2018-05-15T04:49:14.710Z,11.68
2018-05-15T04:51:42.523Z,9.85
2018-05-15T04:54:11.206Z,9.68
2018-05-15T04:56:39.761Z,10.40
2018-05-15T04:59:07.613Z,10.25
2018-05-15T05:01:35.521Z,10.88
2018-05-15T05:04:03.377Z,17.67
2018-05-15T05:06:31.244Z,11.27
2018-05-15T05:08:59.108Z,14.20
2018-05-15T05:11:27.023Z,9.70
2018-05-15T05:13:54.795Z,10.73
2018-05-15T05:16:22.661Z,11.52
2018-05-15T05:18:50.434Z,12.70
2018-05-15T05:21:18.229Z,11.48
2018-05-15T05:23:46.086Z,11.73
2018-05-15T05:26:14.772Z,10.82
2018-05-15T05:28:42.639Z,13.45
2018-05-15T05:31:10.433Z,12.05
2018-05-15T05:33:38.168Z,12.55
2018-05-15T05:36:05.903Z,10.55
2018-05-15T05:38:33.748Z,11.93
2018-05-15T05:41:01.546Z,10.60
2018-05-15T05:43:29.419Z,12.27
2018-05-15T05:45:57.196Z,11.45
2018-05-15T05:48:25.728Z,11.93
2018-05-15T05:50:53.618Z,11.98
2018-05-15T05:53:21.487Z,10.52
2018-05-15T05:55:49.228Z,10.88
2018-05-15T05:58:17.077Z,12.07
2018-05-15T06:00:44.841Z,13.02
2018-05-15T06:03:12.735Z,12.75
2018-05-15T06:05:40.599Z,11.50
2018-05-15T06:08:08.461Z,12.77
2018-05-15T06:10:37.145Z,14.20
2018-05-15T06:13:05.009Z,11.65
2018-05-15T06:15:32.778Z,12.00
2018-05-15T06:18:00.533Z,12.52
2018-05-15T06:20:28.397Z,12.18
2018-05-15T06:22:56.262Z,10.60
2018-05-15T06:25:24.126Z,10.60
2018-05-15T06:27:51.990Z,13.02
2018-05-15T06:30:19.920Z,12.30
2018-05-15T06:32:47.681Z,12.57
2018-05-15T06:35:15.480Z,11.18
2018-05-15T06:37:43.347Z,11.05
2018-05-15T06:40:11.102Z,11.23
2018-05-15T06:42:38.904Z,11.45
2018-05-15T06:45:06.654Z,10.95
2018-05-15T06:47:34.434Z,12.00
2018-05-15T06:50:02.179Z,15.20
2018-05-15T06:52:29.976Z,14.13
2018-05-15T06:54:57.883Z,13.00
2018-05-15T06:57:25.850Z,11.23
2018-05-15T06:59:53.649Z,10.98
2018-05-15T07:02:21.583Z,10.95
2018-05-15T07:04:49.447Z,10.75
2018-05-15T07:07:17.268Z,11.75
2018-05-15T07:09:45.068Z,13.82
2018-05-15T07:12:12.941Z,10.98
2018-05-15T07:14:40.710Z,10.88
2018-05-15T07:17:09.274Z,10.85
2018-05-15T07:19:37.183Z,10.15
2018-05-15T07:22:05.308Z,9.75
2018-05-15T07:24:33.996Z,8.52
2018-05-15T07:27:01.763Z,9.35
2018-05-15T07:29:29.621Z,9.95
2018-05-15T07:31:57.484Z,10.20
2018-05-15T07:34:25.382Z,8.52
2018-05-15T07:36:53.222Z,12.65
2018-05-15T07:39:21.896Z,10.45
2018-05-15T07:41:49.757Z,9.20
2018-05-15T07:44:17.505Z,8.37
2018-05-15T07:46:45.388Z,9.80
2018-05-15T07:49:13.248Z,8.30
2018-05-15T07:51:41.217Z,8.77
2018-05-15T07:54:09.077Z,9.13
2018-05-15T07:56:36.850Z,8.23
2018-05-15T07:59:04.598Z,8.13
2018-05-15T08:01:32.375Z,7.10
2018-05-15T08:04:00.119Z,6.03
2018-05-15T08:06:27.904Z,7.60
2018-05-15T08:08:55.652Z,6.07
2018-05-15T08:11:24.228Z,5.68
2018-05-15T08:13:52.195Z,6.20
2018-05-15T08:16:20.146Z,7.28
2018-05-15T08:18:48.026Z,10.98
2018-05-15T08:21:15.757Z,7.28
2018-05-15T08:23:43.538Z,5.25
2018-05-15T08:26:11.281Z,5.50
2018-05-15T08:28:40.073Z,6.97
2018-05-15T08:31:08.584Z,7.15
2018-05-15T08:33:36.438Z,5.70
2018-05-15T08:36:04.321Z,6.05
2018-05-15T08:38:32.989Z,5.22
2018-05-15T08:41:00.768Z,6.07
2018-05-15T08:43:28.615Z,7.40
2018-05-15T08:45:57.404Z,5.95
2018-05-15T08:48:25.264Z,6.12
2018-05-15T08:50:53.128Z,6.57
2018-05-15T08:53:20.989Z,6.07
2018-05-15T08:55:48.852Z,5.37
2018-05-15T08:58:16.719Z,6.28
2018-05-15T09:00:44.582Z,6.05
2018-05-15T09:03:12.447Z,6.03
2018-05-15T09:05:40.214Z,5.62
2018-05-15T09:08:08.075Z,7.18
2018-05-15T09:10:35.835Z,5.50
2018-05-15T09:13:03.632Z,5.50
2018-05-15T09:15:32.220Z,5.87
2018-05-15T09:18:00.071Z,5.43
2018-05-15T09:20:27.825Z,5.40
2018-05-15T09:22:55.584Z,5.57
2018-05-15T09:25:23.312Z,5.62
2018-05-15T09:27:51.099Z,5.53
2018-05-15T09:30:18.920Z,6.25
2018-05-15T09:32:46.815Z,6.95
2018-05-15T09:35:14.683Z,5.45
2018-05-15T09:37:43.369Z,6.62
2018-05-15T09:40:11.229Z,8.00
2018-05-15T09:42:39.110Z,7.12
2018-05-15T09:45:06.875Z,7.80
2018-05-15T09:47:35.410Z,9.68
2018-05-15T09:50:04.688Z,7.10
2018-05-15T09:52:32.804Z,7.57
2018-05-15T09:55:02.714Z,6.80
2018-05-15T09:57:31.422Z,7.20
2018-05-15T09:59:59.630Z,6.80
2018-05-15T10:02:28.356Z,5.43
2018-05-15T10:04:56.428Z,5.70
2018-05-15T10:07:25.313Z,5.25
2018-05-15T10:09:53.180Z,5.32
2018-05-15T10:12:21.044Z,4.50
2018-05-15T10:14:48.907Z,5.30
2018-05-15T10:17:16.767Z,5.37
2018-05-15T10:19:44.631Z,6.35
2018-05-15T10:22:12.496Z,4.62
2018-05-15T10:24:40.566Z,4.70
2018-05-15T10:27:08.337Z,4.37
2018-05-15T10:29:36.191Z,5.60
2018-05-15T10:32:03.996Z,4.90
2018-05-15T10:34:31.737Z,5.07
2018-05-15T10:36:59.504Z,5.30
2018-05-15T10:39:27.244Z,5.60
2018-05-15T10:41:55.057Z,6.05
2018-05-15T10:44:22.788Z,5.85
2018-05-15T10:46:50.542Z,6.22
2018-05-15T10:49:19.210Z,5.62
2018-05-15T10:51:47.087Z,6.30
2018-05-15T10:54:14.999Z,4.97
2018-05-15T10:56:42.902Z,6.62
2018-05-15T10:59:10.768Z,6.12
2018-05-15T11:01:38.627Z,5.32
2018-05-15T11:04:06.494Z,5.60
2018-05-15T11:06:34.460Z,6.78
2018-05-15T11:09:02.323Z,5.35
2018-05-15T11:11:30.062Z,10.35
2018-05-15T11:13:58.559Z,3.87
2018-05-15T11:16:26.335Z,4.70
2018-05-15T11:18:54.091Z,3.97
2018-05-15T11:21:33.933Z,4.93
2018-05-15T11:37:46.421Z,4.50
2018-05-15T11:40:15.100Z,4.72
2018-05-15T11:42:42.969Z,5.45
2018-05-15T11:45:10.827Z,7.35
2018-05-15T11:47:38.839Z,5.85
2018-05-15T11:50:07.238Z,6.72
2018-05-15T11:52:35.143Z,4.62
2018-05-15T11:55:02.252Z,6.53
2018-05-15T11:57:29.999Z,5.07
2018-05-15T11:59:57.817Z,5.10
2018-05-15T12:02:25.586Z,4.50
2018-05-15T12:04:53.359Z,4.68
2018-05-15T12:07:21.119Z,5.25
2018-05-15T12:09:48.915Z,4.55
2018-05-15T12:12:16.721Z,4.80
2018-05-15T12:14:44.587Z,7.37
2018-05-15T12:17:12.447Z,5.50
2018-05-15T12:19:40.211Z,5.90
2018-05-15T12:22:07.946Z,5.82
2018-05-15T12:24:35.903Z,5.65
2018-05-15T12:27:03.699Z,5.30
2018-05-15T12:29:31.526Z,6.60
2018-05-15T12:31:59.431Z,7.45
2018-05-15T12:34:27.189Z,7.32
2018-05-15T12:36:55.053Z,6.47
2018-05-15T12:39:22.917Z,6.80
2018-05-15T12:41:50.815Z,7.12
2018-05-15T12:44:18.648Z,5.55
2018-05-15T12:46:46.608Z,6.82
2018-05-15T12:49:14.299Z,8.95
2018-05-15T12:51:42.976Z,5.40
2018-05-15T12:54:11.550Z,6.60
2018-05-15T12:56:39.401Z,5.30
2018-05-15T12:59:07.264Z,5.30
2018-05-15T13:01:35.132Z,6.35
2018-05-15T13:04:02.997Z,6.72
2018-05-15T13:06:30.745Z,5.80
2018-05-15T13:08:58.539Z,7.20
2018-05-15T13:11:26.276Z,6.62
2018-05-15T13:13:54.049Z,7.37
2018-05-15T13:16:21.788Z,7.43
2018-05-15T13:18:49.558Z,6.10
2018-05-15T13:21:17.291Z,7.68
2018-05-15T13:23:45.085Z,8.15
2018-05-15T13:26:12.828Z,8.75
2018-05-15T13:28:40.713Z,10.70
2018-05-15T13:31:08.577Z,11.40
2018-05-15T13:33:36.408Z,11.60
2018-05-15T13:36:04.203Z,11.50
2018-05-15T13:38:31.935Z,9.88
2018-05-15T13:40:59.721Z,9.50
2018-05-15T13:43:27.560Z,10.98
2018-05-15T13:45:55.412Z,11.20
2018-05-15T13:48:23.216Z,11.32
2018-05-15T13:50:51.080Z,11.52
2018-05-15T13:53:18.946Z,11.55
2018-05-15T13:55:47.218Z,11.68
2018-05-15T13:58:14.980Z,11.63
2018-05-15T14:00:42.846Z,12.07
2018-05-15T14:03:10.713Z,11.75
2018-05-15T14:05:38.573Z,11.57
2018-05-15T14:08:07.372Z,12.23
2018-05-15T14:10:35.222Z,10.98
2018-05-15T14:13:03.813Z,8.85
2018-05-15T14:15:31.671Z,11.57
2018-05-15T14:17:59.500Z,12.35
2018-05-15T14:20:27.399Z,10.90
2018-05-15T14:22:55.267Z,9.27
2018-05-15T14:25:23.125Z,9.70
2018-05-15T14:27:50.873Z,11.30
2018-05-15T14:30:18.659Z,10.18
2018-05-15T14:32:46.417Z,13.00
2018-05-15T14:35:14.197Z,12.00
2018-05-15T14:37:41.943Z,11.63
2018-05-15T14:40:09.739Z,11.88
2018-05-15T14:42:49.437Z,10.70
2018-05-15T14:45:18.185Z,9.50
2018-05-15T14:47:45.985Z,8.70
2018-05-15T14:50:13.954Z,13.60
2018-05-15T14:52:41.815Z,12.32
2018-05-15T14:55:09.679Z,12.18
2018-05-15T14:57:37.510Z,12.32
2018-05-15T15:00:05.413Z,13.43
2018-05-15T15:02:33.273Z,13.65
2018-05-15T15:05:01.136Z,13.32
2018-05-15T15:07:29.023Z,12.35
2018-05-15T15:09:57.576Z,12.15
2018-05-15T15:12:25.449Z,10.02
2018-05-15T15:14:53.419Z,12.35
2018-05-15T15:17:21.293Z,12.10
2018-05-15T15:19:49.857Z,11.00
2018-05-15T15:22:17.723Z,10.30
2018-05-15T15:24:45.586Z,8.23
2018-05-15T15:27:13.454Z,10.80
2018-05-15T15:29:41.315Z,9.18
2018-05-15T15:32:09.048Z,7.70
2018-05-15T15:34:36.948Z,7.90
2018-05-15T15:37:04.805Z,7.70
2018-05-15T15:39:32.668Z,7.82
2018-05-15T15:42:00.405Z,7.10
2018-05-15T15:44:28.170Z,7.65
2018-05-15T15:46:55.903Z,6.80
2018-05-15T15:49:23.664Z,6.32
2018-05-15T15:51:51.408Z,7.80
2018-05-15T15:54:19.213Z,6.82
2018-05-15T15:56:47.009Z,7.53
2018-05-15T15:59:14.864Z,7.70
2018-05-15T16:01:42.732Z,6.75
2018-05-15T16:04:10.601Z,6.15
2018-05-15T16:06:38.559Z,6.72
2018-05-15T16:09:06.425Z,9.10
2018-05-15T16:11:34.180Z,6.93
2018-05-15T16:14:02.051Z,8.60
2018-05-15T16:16:30.635Z,6.30
2018-05-15T16:18:58.391Z,6.80
2018-05-15T16:21:26.161Z,6.05
2018-05-15T16:23:54.020Z,8.05
2018-05-15T16:26:22.394Z,9.63
2018-05-15T16:28:50.259Z,8.68
2018-05-15T16:31:18.839Z,7.07
2018-05-15T16:33:46.703Z,6.37
2018-05-15T16:36:14.568Z,5.78
2018-05-15T16:38:42.432Z,5.00
2018-05-15T16:41:11.012Z,8.02
2018-05-15T16:43:38.878Z,6.87
2018-05-15T16:46:06.740Z,6.70
2018-05-15T16:48:34.607Z,4.87
2018-05-15T16:51:02.473Z,5.80
2018-05-15T16:53:30.338Z,5.57
2018-05-15T16:55:58.167Z,5.32
2018-05-15T16:58:25.895Z,7.60
2018-05-15T17:00:53.725Z,6.60
2018-05-15T17:03:21.465Z,5.85
2018-05-15T17:05:49.260Z,6.40
2018-05-15T17:08:17.170Z,7.90
2018-05-15T17:10:44.844Z,7.43
2018-05-15T17:13:12.646Z,9.23
2018-05-15T17:15:40.500Z,12.20
2018-05-15T17:18:08.986Z,13.65
2018-05-15T17:20:36.801Z,17.92
2018-05-15T17:23:04.546Z,20.02
2018-05-15T17:25:32.418Z,18.52
2018-05-15T17:28:00.901Z,15.95
2018-05-15T17:30:28.647Z,20.30
2018-05-15T17:32:56.417Z,16.48
2018-05-15T17:35:24.216Z,14.20
2018-05-15T17:37:52.009Z,19.52
2018-05-15T17:40:20.536Z,16.17
2018-05-15T17:42:48.304Z,15.30
2018-05-15T17:45:16.075Z,14.20
2018-05-15T17:47:43.835Z,17.45
2018-05-15T17:50:11.578Z,16.35
2018-05-15T17:52:39.384Z,18.02
2018-05-15T17:55:07.967Z,17.83
2018-05-15T17:57:35.761Z,14.32
2018-05-15T18:00:04.271Z,18.87
2018-05-15T18:02:32.017Z,15.15
2018-05-15T18:04:59.793Z,22.17
2018-05-15T18:07:27.592Z,15.45
2018-05-15T18:09:55.429Z,17.55
2018-05-15T18:12:23.319Z,15.25
2018-05-15T18:14:51.089Z,19.15
2018-05-15T18:17:18.869Z,16.00
2018-05-15T18:19:47.525Z,17.77
2018-05-15T18:22:16.104Z,15.40
2018-05-15T18:24:44.687Z,15.93
2018-05-15T18:27:13.268Z,17.85
2018-05-15T18:29:41.090Z,16.77
2018-05-15T18:32:08.828Z,15.27
2018-05-15T18:34:37.473Z,16.02
2018-05-15T18:37:05.340Z,17.20
2018-05-15T18:39:33.080Z,16.52
2018-05-15T18:42:00.941Z,18.12
2018-05-15T18:44:28.830Z,17.25
2018-05-15T18:46:57.513Z,15.10
2018-05-15T18:49:25.255Z,15.90
2018-05-15T18:51:53.037Z,15.90
2018-05-15T18:54:21.619Z,16.65
2018-05-15T18:56:50.198Z,13.32
2018-05-15T18:59:18.067Z,12.73
2018-05-15T19:01:46.751Z,17.60
2018-05-15T19:04:14.609Z,13.70
2018-05-15T19:06:43.232Z,13.80
2018-05-15T19:09:11.161Z,16.27
2018-05-15T19:11:39.021Z,15.70
2018-05-15T19:14:07.677Z,14.80
2018-05-15T19:16:35.671Z,15.07
2018-05-15T19:19:03.535Z,15.85
2018-05-15T19:21:32.118Z,15.27
2018-05-15T19:24:02.345Z,15.57
2018-05-15T19:26:31.122Z,18.35
2018-05-15T19:29:00.782Z,18.12
2018-05-15T19:31:34.120Z,17.37
2018-05-15T19:34:02.805Z,16.42
2018-05-15T19:36:31.432Z,15.30
2018-05-15T19:39:04.730Z,15.68
2018-05-15T19:41:32.528Z,16.75
2018-05-15T19:44:00.270Z,17.80
2018-05-15T19:46:28.071Z,18.75
2018-05-15T19:48:55.933Z,17.33
2018-05-15T19:51:23.906Z,17.02
2018-05-15T19:53:51.735Z,14.50
2018-05-15T19:56:19.625Z,18.73
2018-05-15T19:58:48.207Z,17.00
2018-05-15T20:01:16.069Z,17.15
2018-05-15T20:03:44.650Z,21.23
2018-05-15T20:06:13.201Z,21.12
2018-05-15T20:08:41.110Z,20.52
2018-05-15T20:11:08.959Z,22.17
2018-05-15T20:13:37.744Z,23.35
2018-05-15T20:16:06.960Z,25.45
2018-05-15T20:18:35.488Z,25.33
2018-05-15T20:21:03.286Z,23.98
2018-05-15T20:23:31.253Z,21.23
2018-05-15T20:25:59.112Z,18.23
2018-05-15T20:28:26.980Z,19.45
2018-05-15T20:30:54.844Z,20.70
2018-05-15T20:33:22.751Z,21.30
2018-05-15T20:35:51.492Z,21.20
2018-05-15T20:38:19.316Z,22.92
2018-05-15T20:40:47.219Z,20.02
2018-05-15T20:43:14.982Z,24.17
2018-05-15T20:45:42.757Z,23.77
2018-05-15T20:48:10.601Z,24.60
2018-05-15T20:50:38.458Z,23.35
2018-05-15T20:53:06.336Z,24.15
2018-05-15T20:55:35.146Z,28.35
2018-05-15T20:58:03.805Z,26.58
2018-05-15T21:00:31.757Z,23.70
2018-05-15T21:02:59.533Z,21.00
2018-05-15T21:05:27.525Z,15.40
2018-05-15T21:07:56.185Z,18.60
2018-05-15T21:10:23.946Z,16.12
2018-05-15T21:12:52.631Z,18.25
2018-05-15T21:15:21.735Z,22.65
2018-05-15T21:17:49.690Z,22.13
2018-05-15T21:20:19.196Z,20.12
2018-05-15T21:22:47.843Z,20.62
2018-05-15T21:25:15.639Z,21.10
2018-05-15T21:27:43.420Z,21.45
2018-05-15T21:30:11.166Z,21.83
2018-05-15T21:32:39.116Z,19.20
2018-05-15T21:35:06.869Z,17.77
2018-05-15T21:37:34.708Z,18.40
2018-05-15T21:40:02.452Z,17.30
2018-05-15T21:42:30.276Z,13.20
2018-05-15T21:44:58.242Z,13.43
2018-05-15T21:47:26.162Z,14.38
2018-05-15T21:49:54.082Z,15.57
2018-05-15T21:52:21.940Z,18.75
2018-05-15T21:54:50.620Z,20.50
2018-05-15T21:57:19.200Z,16.70
2018-05-15T21:59:47.883Z,18.80
2018-05-15T22:02:15.646Z,22.27
2018-05-15T22:04:43.513Z,25.02
2018-05-15T22:07:12.096Z,20.00
2018-05-15T22:09:39.987Z,20.58
2018-05-15T22:12:20.353Z,20.50
2018-05-15T22:15:00.060Z,26.98
2018-05-15T22:17:39.801Z,22.37
2018-05-15T22:20:19.648Z,21.52
2018-05-15T22:22:46.996Z,23.52
2018-05-15T22:25:14.859Z,26.80
2018-05-15T22:27:42.831Z,24.52
2018-05-15T22:30:10.691Z,25.50
2018-05-15T22:32:38.595Z,27.00
2018-05-15T22:35:06.420Z,26.23
2018-05-15T22:37:34.385Z,24.30
2018-05-15T22:40:02.252Z,25.23
2018-05-15T22:42:30.071Z,29.20
2018-05-15T22:44:57.925Z,26.65
2018-05-15T22:47:25.659Z,29.52
2018-05-15T22:49:53.440Z,25.60
2018-05-15T22:52:21.183Z,29.12
2018-05-15T22:54:48.948Z,27.70
2018-05-15T22:57:16.705Z,29.67
2018-05-15T22:59:45.328Z,25.55
2018-05-15T23:02:13.132Z,29.90
2018-05-15T23:04:40.993Z,25.88
2018-05-15T23:07:08.857Z,26.73
2018-05-15T23:09:36.721Z,27.17
2018-05-15T23:12:04.587Z,26.92
2018-05-15T23:14:32.449Z,23.73
2018-05-15T23:17:00.285Z,27.62
2018-05-15T23:19:28.496Z,27.95
2018-05-15T23:21:56.419Z,35.88
2018-05-15T23:24:24.317Z,25.58
2018-05-15T23:26:52.470Z,27.83
2018-05-15T23:29:20.416Z,26.58
2018-05-15T23:31:48.326Z,26.05
2018-05-15T23:34:16.387Z,29.75
2018-05-15T23:36:44.971Z,23.35
2018-05-15T23:39:12.833Z,25.30
2018-05-15T23:41:41.417Z,27.05
2018-05-15T23:44:09.995Z,26.75
2018-05-15T23:46:38.536Z,29.50
2018-05-15T23:49:06.338Z,25.40
2018-05-15T23:51:34.917Z,27.52
2018-05-15T23:54:03.602Z,21.48
2018-05-15T23:56:31.466Z,24.12
2018-05-15T23:58:59.298Z,25.25
